Sea Robin — WDG6181 — position and weather

sailwx.info

Track history (hours):
 
Tides and Currents Weather Stations Pressure Air Temp Water Temp Dewpoint Dewpoint Depression Visibility Wind Speed Wind Dir Waves Ship Positions

Sea Robin

Owner: Kirby Offshore Marine, LLC, Staten Island, NY. More information available from US FCC via Universal Licensing System and Coast Guard Vessel Documentation Center.

Last reported at 2018-Apr-26 02:49 UTC. Time now 2018-May-23 22:19 UTC.
Position N 40°39' W 074°10'.
Warning: this ship's position is 27 days out of date.

Length 32 m; draft 5 m.

Type: SAR. MMSI: 366836950.

Date/timePositionNaut miles runAvg speedWind from/ knotsBaromVisibWave heightAir tempDewpointWater temp
2018-Apr-26 02:49N 40°39' W 074°10'0 0.0
2018-Apr-24 14:49N 40°39' W 074°10'0 0.0
2018-Apr-24 12:04N 40°39' W 074°10'0 0.0
2018-Apr-24 11:31N 40°39' W 074°10'0 0.0
2018-Apr-24 11:13N 40°39' W 074°10'0 0.0
2018-Apr-24 10:55N 40°39' W 074°10'0 0.0
2018-Apr-24 10:25N 40°39' W 074°10'0 0.0
2018-Apr-24 09:56N 40°39' W 074°10'0 0.0
2018-Apr-24 07:43N 40°39' W 074°10'0 0.0
2018-Apr-24 07:22N 40°39' W 074°10'0 0.0
2018-Apr-24 04:20N 40°39' W 074°10'0 0.0
2018-Apr-24 04:00N 40°39' W 074°10'0 0.0
2018-Apr-24 03:30N 40°39' W 074°10'0 0.0
2018-Apr-24 03:00N 40°39' W 074°10'0 0.0
2018-Apr-24 02:30N 40°39' W 074°10'0 0.0
2018-Apr-24 01:57N 40°39' W 074°10'0 0.0
2018-Apr-24 01:28N 40°39' W 074°10'0 0.0
2018-Apr-24 01:00N 40°39' W 074°10'0 0.0
2018-Apr-24 00:13N 40°39' W 074°10'0 0.0
2018-Apr-23 23:57N 40°39' W 074°10'1 3.0
2018-Apr-23 23:30N 40°39' W 074°08'2 4.3
2018-Apr-23 23:00N 40°39' W 074°05'0 0.7
2018-Apr-23 22:30N 40°39' W 074°05'0 0.0
2018-Apr-23 22:00N 40°39' W 074°05'2 4.7
2018-Apr-23 21:30N 40°39' W 074°08'1 2.6
2018-Apr-23 20:59N 40°39' W 074°10'0 0.0
2018-Apr-22 17:47N 40°39' W 074°10'2 6.8
2018-Apr-22 17:30N 40°39' W 074°07'0 0.2
2018-Apr-22 14:57N 40°39' W 074°07'0 0.0
2018-Apr-22 14:30N 40°39' W 074°07'0 0.0
2018-Apr-22 14:00N 40°39' W 074°07'0 0.0
2018-Apr-22 13:30N 40°39' W 074°07'0 0.0
2018-Apr-22 13:00N 40°39' W 074°07'2 4.2
2018-Apr-22 12:26N 40°39' W 074°10'0 0.0
2018-Apr-22 05:34N 40°39' W 074°10'0 0.1
2018-Apr-22 05:28N 40°39' W 074°10'0 0.0
2018-Apr-22 04:58N 40°39' W 074°10'0 0.2
2018-Apr-22 04:31N 40°39' W 074°10'5 9.6
2018-Apr-22 04:00N 40°39' W 074°04'4 8.6
2018-Apr-22 03:30N 40°42' W 073°60'4 7.2
2018-Apr-22 03:00N 40°45' W 073°57'0 0.1
2018-Apr-21 23:56N 40°46' W 073°57'1 1.4
2018-Apr-21 23:30N 40°45' W 073°57'4 7.5
2018-Apr-21 23:00N 40°42' W 074°00'4 8.1
2018-Apr-21 22:30N 40°38' W 074°03'4 7.1
2018-Apr-21 22:00N 40°35' W 074°02'4 7.1
2018-Apr-21 21:30N 40°32' W 073°60'4 7.3
2018-Apr-21 21:00N 40°29' W 073°56'4 8.1
2018-Apr-21 20:30N 40°25' W 073°54'30 9.0
2018-Apr-21 17:12N 39°56' W 074°01'2 9.2
2018-Apr-21 16:56N 39°54' W 074°01'5 9.2
2018-Apr-21 16:26N 39°49' W 074°02'4 9.1
2018-Apr-21 16:00N 39°45' W 074°03'5 9.2
2018-Apr-21 15:28N 39°41' W 074°06'4 9.4
2018-Apr-21 15:00N 39°37' W 074°08'5 9.2
2018-Apr-21 14:28N 39°32' W 074°11'55 7.2
2018-Apr-21 06:47N 38°59' W 075°08'3 9.4
2018-Apr-21 06:30N 39°02' W 075°09'4 8.8
2018-Apr-21 06:00N 39°05' W 075°11'4 8.6
2018-Apr-21 05:30N 39°09' W 075°15'4 7.7
2018-Apr-21 05:00N 39°12' W 075°17'4 7.3
2018-Apr-21 04:30N 39°15' W 075°20'4 7.7
2018-Apr-21 04:00N 39°18' W 075°23'4 7.9
2018-Apr-21 03:30N 39°21' W 075°26'5 9.2
2018-Apr-21 03:00N 39°25' W 075°30'5 9.5
2018-Apr-21 02:30N 39°29' W 075°34'510.8
2018-Apr-21 02:00N 39°34' W 075°33'5 9.8
2018-Apr-21 01:30N 39°39' W 075°33'611.4
2018-Apr-21 01:00N 39°44' W 075°30'611.1
2018-Apr-21 00:30N 39°48' W 075°25'611.1
2018-Apr-21 00:00N 39°51' W 075°19'510.3
2018-Apr-20 23:31N 39°52' W 075°13'4 8.7
2018-Apr-20 23:00N 39°55' W 075°08'4 7.9
2018-Apr-20 22:30N 39°58' W 075°06'2 4.0
2018-Apr-20 21:55N 40°00' W 075°04'0 0.0
2018-Apr-20 21:28N 40°00' W 075°04'0 0.0
2018-Apr-20 20:58N 40°00' W 075°04'0 0.0
2018-Apr-20 20:28N 40°00' W 075°04'0 0.0
2018-Apr-20 19:58N 40°00' W 075°04'0 0.0
2018-Apr-20 19:28N 40°00' W 075°04'0 0.0
2018-Apr-20 18:58N 40°00' W 075°04'0 0.0
2018-Apr-20 18:28N 40°00' W 075°04'0 0.0
2018-Apr-20 17:57N 40°00' W 075°04'0 0.0
2018-Apr-20 17:28N 40°00' W 075°04'0 0.0
2018-Apr-20 16:58N 40°00' W 075°04'0 0.0
2018-Apr-20 16:25N 40°00' W 075°04'0 0.0
2018-Apr-20 15:58N 40°00' W 075°04'0 0.0
2018-Apr-20 15:28N 40°00' W 075°04'0 0.0
2018-Apr-20 14:58N 40°00' W 075°04'0 0.0
2018-Apr-20 14:28N 40°00' W 075°04'0 0.0
2018-Apr-20 13:58N 40°00' W 075°04'0 0.0
2018-Apr-20 13:28N 40°00' W 075°04'0 0.0
2018-Apr-20 12:55N 40°00' W 075°04'0 0.0
2018-Apr-20 12:31N 40°00' W 075°04'0 0.0
2018-Apr-20 11:51N 40°00' W 075°04'0 0.0
2018-Apr-20 11:29N 40°00' W 075°04'0 0.0
2018-Apr-20 10:53N 40°00' W 075°04'0 0.0
2018-Apr-20 10:30N 40°00' W 075°04'0 0.0
2018-Apr-20 10:00N 40°00' W 075°04'0 0.0
2018-Apr-20 09:30N 40°00' W 075°04'0 0.0
2018-Apr-20 08:56N 40°00' W 075°04'0 0.0
2018-Apr-20 08:27N 40°00' W 075°04'0 0.0
2018-Apr-20 07:50N 40°00' W 075°04'0 0.0
2018-Apr-20 07:30N 40°00' W 075°04'0 0.0
2018-Apr-20 07:01N 40°00' W 075°04'0 0.0
2018-Apr-20 06:28N 40°00' W 075°04'0 0.0
2018-Apr-20 05:58N 40°00' W 075°04'0 0.0
2018-Apr-20 05:28N 40°00' W 075°04'0 0.0
2018-Apr-20 05:01N 40°00' W 075°04'0 0.0
2018-Apr-20 04:30N 40°00' W 075°04'0 0.0
2018-Apr-20 03:58N 40°00' W 075°04'0 0.0
2018-Apr-20 03:22N 40°00' W 075°04'0 0.0
2018-Apr-20 02:57N 40°00' W 075°04'0 0.0
2018-Apr-20 02:27N 40°00' W 075°04'0 0.0
2018-Apr-20 01:57N 40°00' W 075°04'0 0.0
2018-Apr-20 01:28N 40°00' W 075°04'0 0.0
2018-Apr-20 00:58N 40°00' W 075°04'0 0.0
2018-Apr-20 00:31N 40°00' W 075°04'0 0.0
2018-Apr-19 23:58N 40°00' W 075°04'0 0.3
2018-Apr-19 23:19N 39°60' W 075°04'2 4.9
2018-Apr-19 23:00N 39°59' W 075°05'3 6.9
2018-Apr-19 22:30N 39°56' W 075°08'4 7.1
2018-Apr-19 22:00N 39°53' W 075°09'3 5.2
2018-Apr-19 21:30N 39°53' W 075°12'5 9.2
2018-Apr-19 21:00N 39°51' W 075°18'5 9.5
2018-Apr-19 20:30N 39°49' W 075°23'510.0
2018-Apr-19 20:00N 39°46' W 075°28'510.0
2018-Apr-19 19:30N 39°41' W 075°31'510.1
2018-Apr-19 19:00N 39°37' W 075°35'4 7.3
2018-Apr-19 18:30N 39°34' W 075°35'5 9.2
2018-Apr-19 18:00N 39°33' W 075°41'5 9.8
2018-Apr-19 17:30N 39°32' W 075°47'5 9.2
2018-Apr-19 17:00N 39°31' W 075°53'510.1
2018-Apr-19 16:30N 39°28' W 075°58'5 9.9
2018-Apr-19 16:00N 39°25' W 076°02'5 9.6
2018-Apr-19 15:30N 39°22' W 076°08'510.0
2018-Apr-19 15:00N 39°19' W 076°13'5 9.9
2018-Apr-19 14:30N 39°14' W 076°14'5 9.7
2018-Apr-19 14:00N 39°10' W 076°18'5 9.3
2018-Apr-19 13:30N 39°06' W 076°20'5 9.6
2018-Apr-19 13:00N 39°01' W 076°22'5 9.6
2018-Apr-19 12:30N 38°57' W 076°23'4 8.3
2018-Apr-19 12:00N 38°53' W 076°24'5 9.4
2018-Apr-19 11:30N 38°48' W 076°26'5 9.4
2018-Apr-19 11:00N 38°44' W 076°27'106 3.2
2018-Apr-18 02:11N 36°57' W 076°22'108 5.3
2018-Apr-17 05:54N 38°45' W 076°27'2 6.0
2018-Apr-17 05:30N 38°47' W 076°27'3 6.2
2018-Apr-17 04:59N 38°50' W 076°25'3 6.5
2018-Apr-17 04:30N 38°53' W 076°24'3 6.9
2018-Apr-17 04:00N 38°57' W 076°23'3 6.9
2018-Apr-17 03:30N 39°00' W 076°23'3 6.5
2018-Apr-17 03:00N 39°03' W 076°21'4 6.2
2018-Apr-17 02:17N 39°07' W 076°19'2 6.4
2018-Apr-17 02:00N 39°09' W 076°19'3 6.5
2018-Apr-17 01:30N 39°12' W 076°16'3 6.3
2018-Apr-17 00:57N 39°15' W 076°14'3 6.1
2018-Apr-17 00:30N 39°17' W 076°14'3 5.7
2018-Apr-17 00:00N 39°20' W 076°12'3 5.7
2018-Apr-16 23:30N 39°22' W 076°09'3 6.0
2018-Apr-16 23:00N 39°23' W 076°06'3 5.9
2018-Apr-16 22:30N 39°24' W 076°02'3 5.9
2018-Apr-16 22:00N 39°27' W 075°60'3 6.0
2018-Apr-16 21:30N 39°29' W 075°57'3 6.0
2018-Apr-16 21:00N 39°31' W 075°54'3 6.0
2018-Apr-16 20:30N 39°32' W 075°50'3 6.3
2018-Apr-16 20:00N 39°32' W 075°46'3 6.8
2018-Apr-16 19:30N 39°33' W 075°42'3 6.9
2018-Apr-16 19:00N 39°33' W 075°38'3 6.6
2018-Apr-16 18:30N 39°34' W 075°33'3 5.7
2018-Apr-16 18:00N 39°36' W 075°34'3 5.6
2018-Apr-16 17:30N 39°39' W 075°33'3 5.5
2018-Apr-16 17:00N 39°41' W 075°31'3 5.2
2018-Apr-16 16:30N 39°44' W 075°30'2 5.0
2018-Apr-16 16:00N 39°46' W 075°29'2 4.9
2018-Apr-16 15:30N 39°48' W 075°26'3 5.0
2018-Apr-16 15:00N 39°49' W 075°23'2 4.6
2018-Apr-16 14:30N 39°50' W 075°21'3 5.1
2018-Apr-16 14:00N 39°51' W 075°18'3 5.8
2018-Apr-16 13:30N 39°51' W 075°14'3 5.4
2018-Apr-16 13:00N 39°53' W 075°11'3 5.3
2018-Apr-16 12:30N 39°54' W 075°08'3 6.0
2018-Apr-16 12:00N 39°57' W 075°08'3 5.7
2018-Apr-16 11:30N 39°59' W 075°05'2 3.6
2018-Apr-16 11:00N 39°60' W 075°04'0 0.0
2018-Apr-16 10:28N 40°00' W 075°04'0 0.0
2018-Apr-16 10:00N 40°00' W 075°04'0 0.0
2018-Apr-16 09:28N 40°00' W 075°04'0 0.0
2018-Apr-16 08:57N 40°00' W 075°04'0 0.0
2018-Apr-16 08:31N 40°00' W 075°04'0 0.0
2018-Apr-16 07:58N 40°00' W 075°04'0 0.0
2018-Apr-16 07:30N 40°00' W 075°04'0 0.0
2018-Apr-16 06:57N 40°00' W 075°04'0 0.0
2018-Apr-16 06:30N 40°00' W 075°04'0 0.0
2018-Apr-16 06:00N 40°00' W 075°04'0 0.0
2018-Apr-16 05:30N 40°00' W 075°04'0 0.0
2018-Apr-16 04:57N 40°00' W 075°04'0 0.0
2018-Apr-16 04:27N 40°00' W 075°04'0 0.0
2018-Apr-16 04:01N 40°00' W 075°04'0 0.0
2018-Apr-16 03:31N 40°00' W 075°04'0 0.0
2018-Apr-16 03:00N 40°00' W 075°04'  
Track history (hours):
 
Tides and Currents Weather Stations Pressure Air Temp Water Temp Dewpoint Dewpoint Depression Visibility Wind Speed Wind Dir Waves Ship Positions

Sea Robin

Owner: Kirby Offshore Marine, LLC, Staten Island, NY. More information available from US FCC via Universal Licensing System and Coast Guard Vessel Documentation Center.

Last reported at 2018-Apr-26 02:49 UTC. Time now 2018-May-23 22:19 UTC.
Position N 40°39' W 074°10'.
Warning: this ship's position is 27 days out of date.

Length 32 m; draft 5 m.

Type: SAR. MMSI: 366836950.

Date/timePositionNaut miles runAvg speedWind from/ knotsBaromVisibWave heightAir tempDewpointWater temp
2018-Apr-26 02:49N 40°39' W 074°10'0 0.0
2018-Apr-24 14:49N 40°39' W 074°10'0 0.0
2018-Apr-24 12:04N 40°39' W 074°10'0 0.0
2018-Apr-24 11:31N 40°39' W 074°10'0 0.0
2018-Apr-24 11:13N 40°39' W 074°10'0 0.0
2018-Apr-24 10:55N 40°39' W 074°10'0 0.0
2018-Apr-24 10:25N 40°39' W 074°10'0 0.0
2018-Apr-24 09:56N 40°39' W 074°10'0 0.0
2018-Apr-24 07:43N 40°39' W 074°10'0 0.0
2018-Apr-24 07:22N 40°39' W 074°10'0 0.0
2018-Apr-24 04:20N 40°39' W 074°10'0 0.0
2018-Apr-24 04:00N 40°39' W 074°10'0 0.0
2018-Apr-24 03:30N 40°39' W 074°10'0 0.0
2018-Apr-24 03:00N 40°39' W 074°10'0 0.0
2018-Apr-24 02:30N 40°39' W 074°10'0 0.0
2018-Apr-24 01:57N 40°39' W 074°10'0 0.0
2018-Apr-24 01:28N 40°39' W 074°10'0 0.0
2018-Apr-24 01:00N 40°39' W 074°10'0 0.0
2018-Apr-24 00:13N 40°39' W 074°10'0 0.0
2018-Apr-23 23:57N 40°39' W 074°10'1 3.0
2018-Apr-23 23:30N 40°39' W 074°08'2 4.3
2018-Apr-23 23:00N 40°39' W 074°05'0 0.7
2018-Apr-23 22:30N 40°39' W 074°05'0 0.0
2018-Apr-23 22:00N 40°39' W 074°05'2 4.7
2018-Apr-23 21:30N 40°39' W 074°08'1 2.6
2018-Apr-23 20:59N 40°39' W 074°10'0 0.0
2018-Apr-22 17:47N 40°39' W 074°10'2 6.8
2018-Apr-22 17:30N 40°39' W 074°07'0 0.2
2018-Apr-22 14:57N 40°39' W 074°07'0 0.0
2018-Apr-22 14:30N 40°39' W 074°07'0 0.0
2018-Apr-22 14:00N 40°39' W 074°07'0 0.0
2018-Apr-22 13:30N 40°39' W 074°07'0 0.0
2018-Apr-22 13:00N 40°39' W 074°07'2 4.2
2018-Apr-22 12:26N 40°39' W 074°10'0 0.0
2018-Apr-22 05:34N 40°39' W 074°10'0 0.1
2018-Apr-22 05:28N 40°39' W 074°10'0 0.0
2018-Apr-22 04:58N 40°39' W 074°10'0 0.2
2018-Apr-22 04:31N 40°39' W 074°10'5 9.6
2018-Apr-22 04:00N 40°39' W 074°04'4 8.6
2018-Apr-22 03:30N 40°42' W 073°60'4 7.2
2018-Apr-22 03:00N 40°45' W 073°57'0 0.1
2018-Apr-21 23:56N 40°46' W 073°57'1 1.4
2018-Apr-21 23:30N 40°45' W 073°57'4 7.5
2018-Apr-21 23:00N 40°42' W 074°00'4 8.1
2018-Apr-21 22:30N 40°38' W 074°03'4 7.1
2018-Apr-21 22:00N 40°35' W 074°02'4 7.1
2018-Apr-21 21:30N 40°32' W 073°60'4 7.3
2018-Apr-21 21:00N 40°29' W 073°56'4 8.1
2018-Apr-21 20:30N 40°25' W 073°54'30 9.0
2018-Apr-21 17:12N 39°56' W 074°01'2 9.2
2018-Apr-21 16:56N 39°54' W 074°01'5 9.2
2018-Apr-21 16:26N 39°49' W 074°02'4 9.1
2018-Apr-21 16:00N 39°45' W 074°03'5 9.2
2018-Apr-21 15:28N 39°41' W 074°06'4 9.4
2018-Apr-21 15:00N 39°37' W 074°08'5 9.2
2018-Apr-21 14:28N 39°32' W 074°11'55 7.2
2018-Apr-21 06:47N 38°59' W 075°08'3 9.4
2018-Apr-21 06:30N 39°02' W 075°09'4 8.8
2018-Apr-21 06:00N 39°05' W 075°11'4 8.6
2018-Apr-21 05:30N 39°09' W 075°15'4 7.7
2018-Apr-21 05:00N 39°12' W 075°17'4 7.3
2018-Apr-21 04:30N 39°15' W 075°20'4 7.7
2018-Apr-21 04:00N 39°18' W 075°23'4 7.9
2018-Apr-21 03:30N 39°21' W 075°26'5 9.2
2018-Apr-21 03:00N 39°25' W 075°30'5 9.5
2018-Apr-21 02:30N 39°29' W 075°34'510.8
2018-Apr-21 02:00N 39°34' W 075°33'5 9.8
2018-Apr-21 01:30N 39°39' W 075°33'611.4
2018-Apr-21 01:00N 39°44' W 075°30'611.1
2018-Apr-21 00:30N 39°48' W 075°25'611.1
2018-Apr-21 00:00N 39°51' W 075°19'510.3
2018-Apr-20 23:31N 39°52' W 075°13'4 8.7
2018-Apr-20 23:00N 39°55' W 075°08'4 7.9
2018-Apr-20 22:30N 39°58' W 075°06'2 4.0
2018-Apr-20 21:55N 40°00' W 075°04'0 0.0
2018-Apr-20 21:28N 40°00' W 075°04'0 0.0
2018-Apr-20 20:58N 40°00' W 075°04'0 0.0
2018-Apr-20 20:28N 40°00' W 075°04'0 0.0
2018-Apr-20 19:58N 40°00' W 075°04'0 0.0
2018-Apr-20 19:28N 40°00' W 075°04'0 0.0
2018-Apr-20 18:58N 40°00' W 075°04'0 0.0
2018-Apr-20 18:28N 40°00' W 075°04'0 0.0
2018-Apr-20 17:57N 40°00' W 075°04'0 0.0
2018-Apr-20 17:28N 40°00' W 075°04'0 0.0
2018-Apr-20 16:58N 40°00' W 075°04'0 0.0
2018-Apr-20 16:25N 40°00' W 075°04'0 0.0
2018-Apr-20 15:58N 40°00' W 075°04'0 0.0
2018-Apr-20 15:28N 40°00' W 075°04'0 0.0
2018-Apr-20 14:58N 40°00' W 075°04'0 0.0
2018-Apr-20 14:28N 40°00' W 075°04'0 0.0
2018-Apr-20 13:58N 40°00' W 075°04'0 0.0
2018-Apr-20 13:28N 40°00' W 075°04'0 0.0
2018-Apr-20 12:55N 40°00' W 075°04'0 0.0
2018-Apr-20 12:31N 40°00' W 075°04'0 0.0
2018-Apr-20 11:51N 40°00' W 075°04'0 0.0
2018-Apr-20 11:29N 40°00' W 075°04'0 0.0
2018-Apr-20 10:53N 40°00' W 075°04'0 0.0
2018-Apr-20 10:30N 40°00' W 075°04'0 0.0
2018-Apr-20 10:00N 40°00' W 075°04'0 0.0
2018-Apr-20 09:30N 40°00' W 075°04'0 0.0
2018-Apr-20 08:56N 40°00' W 075°04'0 0.0
2018-Apr-20 08:27N 40°00' W 075°04'0 0.0
2018-Apr-20 07:50N 40°00' W 075°04'0 0.0
2018-Apr-20 07:30N 40°00' W 075°04'0 0.0
2018-Apr-20 07:01N 40°00' W 075°04'0 0.0
2018-Apr-20 06:28N 40°00' W 075°04'0 0.0
2018-Apr-20 05:58N 40°00' W 075°04'0 0.0
2018-Apr-20 05:28N 40°00' W 075°04'0 0.0
2018-Apr-20 05:01N 40°00' W 075°04'0 0.0
2018-Apr-20 04:30N 40°00' W 075°04'0 0.0
2018-Apr-20 03:58N 40°00' W 075°04'0 0.0
2018-Apr-20 03:22N 40°00' W 075°04'0 0.0
2018-Apr-20 02:57N 40°00' W 075°04'0 0.0
2018-Apr-20 02:27N 40°00' W 075°04'0 0.0
2018-Apr-20 01:57N 40°00' W 075°04'0 0.0
2018-Apr-20 01:28N 40°00' W 075°04'0 0.0
2018-Apr-20 00:58N 40°00' W 075°04'0 0.0
2018-Apr-20 00:31N 40°00' W 075°04'0 0.0
2018-Apr-19 23:58N 40°00' W 075°04'0 0.3
2018-Apr-19 23:19N 39°60' W 075°04'2 4.9
2018-Apr-19 23:00N 39°59' W 075°05'3 6.9
2018-Apr-19 22:30N 39°56' W 075°08'4 7.1
2018-Apr-19 22:00N 39°53' W 075°09'3 5.2
2018-Apr-19 21:30N 39°53' W 075°12'5 9.2
2018-Apr-19 21:00N 39°51' W 075°18'5 9.5
2018-Apr-19 20:30N 39°49' W 075°23'510.0
2018-Apr-19 20:00N 39°46' W 075°28'510.0
2018-Apr-19 19:30N 39°41' W 075°31'510.1
2018-Apr-19 19:00N 39°37' W 075°35'4 7.3
2018-Apr-19 18:30N 39°34' W 075°35'5 9.2
2018-Apr-19 18:00N 39°33' W 075°41'5 9.8
2018-Apr-19 17:30N 39°32' W 075°47'5 9.2
2018-Apr-19 17:00N 39°31' W 075°53'510.1
2018-Apr-19 16:30N 39°28' W 075°58'5 9.9
2018-Apr-19 16:00N 39°25' W 076°02'5 9.6
2018-Apr-19 15:30N 39°22' W 076°08'510.0
2018-Apr-19 15:00N 39°19' W 076°13'5 9.9
2018-Apr-19 14:30N 39°14' W 076°14'5 9.7
2018-Apr-19 14:00N 39°10' W 076°18'5 9.3
2018-Apr-19 13:30N 39°06' W 076°20'5 9.6
2018-Apr-19 13:00N 39°01' W 076°22'5 9.6
2018-Apr-19 12:30N 38°57' W 076°23'4 8.3
2018-Apr-19 12:00N 38°53' W 076°24'5 9.4
2018-Apr-19 11:30N 38°48' W 076°26'5 9.4
2018-Apr-19 11:00N 38°44' W 076°27'106 3.2
2018-Apr-18 02:11N 36°57' W 076°22'108 5.3
2018-Apr-17 05:54N 38°45' W 076°27'2 6.0
2018-Apr-17 05:30N 38°47' W 076°27'3 6.2
2018-Apr-17 04:59N 38°50' W 076°25'3 6.5
2018-Apr-17 04:30N 38°53' W 076°24'3 6.9
2018-Apr-17 04:00N 38°57' W 076°23'3 6.9
2018-Apr-17 03:30N 39°00' W 076°23'3 6.5
2018-Apr-17 03:00N 39°03' W 076°21'4 6.2
2018-Apr-17 02:17N 39°07' W 076°19'2 6.4
2018-Apr-17 02:00N 39°09' W 076°19'3 6.5
2018-Apr-17 01:30N 39°12' W 076°16'3 6.3
2018-Apr-17 00:57N 39°15' W 076°14'3 6.1
2018-Apr-17 00:30N 39°17' W 076°14'3 5.7
2018-Apr-17 00:00N 39°20' W 076°12'3 5.7
2018-Apr-16 23:30N 39°22' W 076°09'3 6.0
2018-Apr-16 23:00N 39°23' W 076°06'3 5.9
2018-Apr-16 22:30N 39°24' W 076°02'3 5.9
2018-Apr-16 22:00N 39°27' W 075°60'3 6.0
2018-Apr-16 21:30N 39°29' W 075°57'3 6.0
2018-Apr-16 21:00N 39°31' W 075°54'3 6.0
2018-Apr-16 20:30N 39°32' W 075°50'3 6.3
2018-Apr-16 20:00N 39°32' W 075°46'3 6.8
2018-Apr-16 19:30N 39°33' W 075°42'3 6.9
2018-Apr-16 19:00N 39°33' W 075°38'3 6.6
2018-Apr-16 18:30N 39°34' W 075°33'3 5.7
2018-Apr-16 18:00N 39°36' W 075°34'3 5.6
2018-Apr-16 17:30N 39°39' W 075°33'3 5.5
2018-Apr-16 17:00N 39°41' W 075°31'3 5.2
2018-Apr-16 16:30N 39°44' W 075°30'2 5.0
2018-Apr-16 16:00N 39°46' W 075°29'2 4.9
2018-Apr-16 15:30N 39°48' W 075°26'3 5.0
2018-Apr-16 15:00N 39°49' W 075°23'2 4.6
2018-Apr-16 14:30N 39°50' W 075°21'3 5.1
2018-Apr-16 14:00N 39°51' W 075°18'3 5.8
2018-Apr-16 13:30N 39°51' W 075°14'3 5.4
2018-Apr-16 13:00N 39°53' W 075°11'3 5.3
2018-Apr-16 12:30N 39°54' W 075°08'3 6.0
2018-Apr-16 12:00N 39°57' W 075°08'3 5.7
2018-Apr-16 11:30N 39°59' W 075°05'2 3.6
2018-Apr-16 11:00N 39°60' W 075°04'0 0.0
2018-Apr-16 10:28N 40°00' W 075°04'0 0.0
2018-Apr-16 10:00N 40°00' W 075°04'0 0.0
2018-Apr-16 09:28N 40°00' W 075°04'0 0.0
2018-Apr-16 08:57N 40°00' W 075°04'0 0.0
2018-Apr-16 08:31N 40°00' W 075°04'0 0.0
2018-Apr-16 07:58N 40°00' W 075°04'0 0.0
2018-Apr-16 07:30N 40°00' W 075°04'0 0.0
2018-Apr-16 06:57N 40°00' W 075°04'0 0.0
2018-Apr-16 06:30N 40°00' W 075°04'0 0.0
2018-Apr-16 06:00N 40°00' W 075°04'0 0.0
2018-Apr-16 05:30N 40°00' W 075°04'0 0.0
2018-Apr-16 04:57N 40°00' W 075°04'0 0.0
2018-Apr-16 04:27N 40°00' W 075°04'0 0.0
2018-Apr-16 04:01N 40°00' W 075°04'0 0.0
2018-Apr-16 03:31N 40°00' W 075°04'0 0.0
2018-Apr-16 03:00N 40°00' W 075°04'  

Dump ship's entire track history